Time;durP1;ratioP1;P1;durP2;ratioP2;P2;SDS_P1;SDS_P2;PMS_P1;PMS_P2;Temp;Humidity;BMP_temperature;BMP_pressure;BME280_temperature;BME280_humidity;BME280_pressure;Samples;Min_cycle;Max_cycle;Signal;HPM_P1;HPM_P2
2023/06/18 00:00:35;;;;;;;7.53;6.73;;;;;;;18.70;100.00;98782.66;5046084;28;20197;-76
2023/06/18 00:03:04;;;;;;;8.17;6.57;;;;;;;18.71;100.00;98775.47;5047215;28;20349;-76
2023/06/18 00:05:33;;;;;;;7.47;6.67;;;;;;;18.10;100.00;98776.34;5055138;28;20735;-76
2023/06/18 00:08:01;;;;;;;7.70;6.80;;;;;;;17.79;100.00;98787.50;5083740;28;20219;-76
2023/06/18 00:10:32;;;;;;;8.70;7.00;;;;;;;18.02;100.00;98785.16;5086306;28;20184;-76
2023/06/18 00:13:00;;;;;;;8.50;7.00;;;;;;;17.93;100.00;98780.72;5093306;28;20195;-77
2023/06/18 00:15:30;;;;;;;13.03;6.50;;;;;;;18.14;100.00;98781.25;5122564;27;20206;-76
2023/06/18 00:18:00;;;;;;;7.43;6.57;;;;;;;18.18;100.00;98785.31;5125001;27;20206;-76
2023/06/18 00:20:32;;;;;;;8.20;6.80;;;;;;;18.31;100.00;98780.38;5128664;27;20724;-76
2023/06/18 00:23:01;;;;;;;6.97;6.27;;;;;;;18.23;100.00;98788.34;5131682;27;20214;-76
2023/06/18 00:25:29;;;;;;;9.77;7.47;;;;;;;18.37;100.00;98786.13;5128322;27;20190;-76
2023/06/18 00:27:58;;;;;;;9.70;7.30;;;;;;;18.17;100.00;98783.63;5126137;27;20194;-76
2023/06/18 00:30:26;;;;;;;8.97;7.60;;;;;;;18.22;100.00;98781.31;5122770;27;20195;-76
2023/06/18 00:32:58;;;;;;;7.30;6.50;;;;;;;18.18;100.00;98790.69;5127696;27;20676;-76
2023/06/18 00:35:26;;;;;;;7.33;6.53;;;;;;;18.18;100.00;98787.16;5128805;27;20255;-76
2023/06/18 00:37:55;;;;;;;7.40;6.60;;;;;;;18.15;100.00;98784.78;5124818;27;20230;-76
2023/06/18 00:40:24;;;;;;;7.20;6.40;;;;;;;18.21;100.00;98784.16;5127719;27;20269;-76
2023/06/18 00:42:55;;;;;;;8.03;6.80;;;;;;;18.28;100.00;98783.38;5132876;27;20210;-76
2023/06/18 00:45:23;;;;;;;8.20;7.03;;;;;;;18.04;100.00;98793.88;5130322;27;20195;-76
2023/06/18 00:47:53;;;;;;;8.27;6.80;;;;;;;17.97;100.00;98785.66;5123761;27;20632;-76
2023/06/18 00:50:26;;;;;;;9.33;6.67;;;;;;;18.07;100.00;98784.72;5128100;27;20194;-76
2023/06/18 00:52:59;;;;;;;8.17;7.33;;;;;;;18.13;100.00;98787.59;5126927;27;20196;-77
2023/06/18 00:55:29;;;;;;;10.13;7.27;;;;;;;17.98;100.00;98789.16;5132567;27;20244;-77
2023/06/18 00:58:09;;;;;;;10.27;7.27;;;;;;;17.95;100.00;98781.41;5126627;27;20222;-76
2023/06/18 01:00:40;;;;;;;8.40;7.57;;;;;;;18.00;100.00;98776.44;5132143;27;20645;-76
2023/06/18 01:03:16;;;;;;;11.60;7.53;;;;;;;17.81;100.00;98780.13;5130212;27;20221;-77
2023/06/18 01:05:50;;;;;;;8.67;7.27;;;;;;;17.84;100.00;98785.16;5128916;27;20190;-76
2023/06/18 01:08:23;;;;;;;10.57;8.13;;;;;;;17.44;100.00;98801.66;5124899;27;20205;-76
2023/06/18 01:11:01;;;;;;;10.07;7.70;;;;;;;17.40;100.00;98786.88;5126582;27;20191;-76
2023/06/18 01:13:32;;;;;;;8.10;7.00;;;;;;;17.38;100.00;98788.88;5132102;27;20198;-76
2023/06/18 01:16:03;;;;;;;10.37;8.13;;;;;;;17.36;100.00;98785.47;5127272;27;20187;-76
2023/06/18 01:18:35;;;;;;;9.73;7.60;;;;;;;17.21;100.00;98795.88;5127646;27;20204;-76
2023/06/18 01:21:09;;;;;;;10.53;7.83;;;;;;;17.20;100.00;98785.31;5126606;27;20194;-76
2023/06/18 01:23:51;;;;;;;9.03;8.13;;;;;;;17.02;100.00;98788.78;5129801;27;20702;-76
2023/06/18 01:26:21;;;;;;;9.27;7.73;;;;;;;16.91;100.00;98786.31;5126684;27;20198;-76
2023/06/18 01:28:51;;;;;;;9.33;7.83;;;;;;;16.92;100.00;98787.16;5124921;27;20208;-76
2023/06/18 01:31:22;;;;;;;8.53;7.63;;;;;;;16.96;100.00;98781.34;5127595;27;20202;-76
2023/06/18 01:33:53;;;;;;;8.80;7.90;;;;;;;16.71;100.00;98780.19;5129465;27;20197;-76
2023/06/18 01:36:34;;;;;;;11.83;8.53;;;;;;;16.69;100.00;98781.31;5130869;27;20661;-76
2023/06/18 01:39:10;;;;;;;15.70;7.43;;;;;;;16.64;100.00;98780.88;5127134;27;20198;-76
2023/06/18 01:41:43;;;;;;;8.87;7.93;;;;;;;16.55;100.00;98780.75;5120660;27;20209;-76
2023/06/18 01:44:18;;;;;;;10.00;8.20;;;;;;;16.47;100.00;98780.63;5126709;27;20313;-76
2023/06/18 01:46:50;;;;;;;11.73;8.10;;;;;;;16.43;100.00;98781.09;5127465;27;20221;-76
2023/06/18 01:49:21;;;;;;;10.53;7.37;;;;;;;16.42;100.00;98784.75;5123802;27;20202;-76
2023/06/18 01:51:53;;;;;;;10.37;7.37;;;;;;;16.28;100.00;98786.88;5127572;27;20198;-76
2023/06/18 01:54:24;;;;;;;9.00;7.63;;;;;;;16.15;100.00;98783.66;5124601;27;20205;-76
2023/06/18 01:56:53;;;;;;;8.77;7.87;;;;;;;16.15;100.00;98789.00;5127034;27;20198;-76
2023/06/18 01:59:21;;;;;;;10.17;8.20;;;;;;;16.26;100.00;98793.34;5126844;27;20202;-76
2023/06/18 02:01:50;;;;;;;8.80;7.63;;;;;;;16.20;100.00;98793.91;5124515;27;20202;-75
2023/06/18 02:04:18;;;;;;;9.70;8.47;;;;;;;16.17;100.00;98792.38;5129230;27;20218;-76
2023/06/18 02:06:47;;;;;;;10.40;8.60;;;;;;;16.12;100.00;98788.47;5123213;27;20267;-76
2023/06/18 02:09:16;;;;;;;10.77;8.03;;;;;;;16.22;100.00;98795.47;5125969;27;20251;-76
2023/06/18 02:11:45;;;;;;;10.73;8.43;;;;;;;16.21;100.00;98798.25;5130171;27;20269;-76
2023/06/18 02:14:13;;;;;;;9.43;8.53;;;;;;;16.27;100.00;98797.69;5124755;27;20244;-76
2023/06/18 02:16:42;;;;;;;12.43;8.73;;;;;;;16.16;100.00;98789.84;5123884;27;20656;-76
2023/06/18 02:19:10;;;;;;;11.80;8.73;;;;;;;16.09;100.00;98797.56;5124758;27;20227;-76
2023/06/18 02:21:40;;;;;;;10.93;8.60;;;;;;;16.08;100.00;98793.22;5127046;27;20182;-75
2023/06/18 02:24:09;;;;;;;11.57;8.20;;;;;;;16.00;100.00;98795.75;5126755;27;20218;-76
2023/06/18 02:26:39;;;;;;;9.97;8.77;;;;;;;16.00;100.00;98795.75;5128133;27;20191;-76
2023/06/18 02:29:07;;;;;;;9.40;8.27;;;;;;;16.02;100.00;98797.31;5125194;27;20194;-76
2023/06/18 02:31:35;;;;;;;12.60;8.53;;;;;;;15.82;100.00;98792.94;5125424;27;20262;-76
2023/06/18 02:34:04;;;;;;;8.90;7.73;;;;;;;15.83;100.00;98793.81;5124600;27;20221;-76
2023/06/18 02:36:32;;;;;;;9.47;8.47;;;;;;;15.72;100.00;98792.09;5125160;27;20700;-78
2023/06/18 02:39:01;;;;;;;9.00;7.93;;;;;;;15.72;100.00;98786.75;5069732;28;20232;-76
2023/06/18 02:41:29;;;;;;;9.33;8.30;;;;;;;15.83;100.00;98791.16;5062774;28;20268;-76
2023/06/18 02:43:59;;;;;;;10.67;8.23;;;;;;;15.67;100.00;98781.00;5067641;28;20251;-76
2023/06/18 02:46:28;;;;;;;9.30;8.17;;;;;;;15.84;100.00;98784.81;5061352;28;20203;-77
2023/06/18 02:48:56;;;;;;;8.93;7.80;;;;;;;15.76;100.00;98782.00;5066459;28;20230;-77
2023/06/18 02:51:24;;;;;;;8.57;7.73;;;;;;;15.82;100.00;98773.41;5061969;28;20223;-77
2023/06/18 02:53:54;;;;;;;9.43;8.07;;;;;;;15.80;100.00;98767.38;5070248;28;20211;-77
2023/06/18 02:56:23;;;;;;;9.07;8.17;;;;;;;15.88;100.00;98773.69;5073000;28;20385;-77
2023/06/18 02:58:55;;;;;;;8.57;7.67;;;;;;;15.90;100.00;98766.38;5119822;28;20664;-77
2023/06/18 03:01:25;;;;;;;11.60;8.50;;;;;;;15.92;100.00;98775.13;5128227;28;20289;-77
2023/06/18 03:03:54;;;;;;;10.20;8.17;;;;;;;15.96;100.00;98773.00;5125992;28;20198;-77
2023/06/18 03:06:23;;;;;;;13.00;8.50;;;;;;;16.01;100.00;98770.72;5126893;28;20190;-77
2023/06/18 03:08:52;;;;;;;10.60;7.73;;;;;;;15.88;100.00;98768.34;5123904;28;20201;-77
2023/06/18 03:11:20;;;;;;;9.63;8.37;;;;;;;15.70;100.00;98773.53;5126592;28;20202;-77
2023/06/18 03:13:50;;;;;;;10.17;8.30;;;;;;;16.02;100.00;98770.59;5123692;28;20198;-77
2023/06/18 03:16:18;;;;;;;9.40;8.47;;;;;;;16.11;100.00;98768.03;5130489;28;20194;-77
2023/06/18 03:18:48;;;;;;;9.20;8.30;;;;;;;16.24;100.00;98776.63;5122745;28;20255;-77
2023/06/18 03:21:16;;;;;;;9.37;8.37;;;;;;;16.25;100.00;98767.63;5129078;28;20214;-77
2023/06/18 03:23:45;;;;;;;9.33;8.30;;;;;;;15.91;100.00;98768.06;5128249;28;20194;-77
2023/06/18 03:26:14;;;;;;;10.17;8.43;;;;;;;15.87;100.00;98755.97;5122235;28;20226;-77
2023/06/18 03:28:42;;;;;;;9.83;8.13;;;;;;;16.05;100.00;98769.47;5125809;28;20191;-77
2023/06/18 03:31:10;;;;;;;8.67;7.77;;;;;;;16.01;100.00;98768.06;5130055;28;20198;-77
2023/06/18 03:33:39;;;;;;;9.33;8.43;;;;;;;15.90;100.00;98768.19;5126527;28;20281;-77
2023/06/18 03:36:09;;;;;;;9.93;8.57;;;;;;;15.96;100.00;98768.50;5125209;28;20205;-77
2023/06/18 03:38:37;;;;;;;10.90;8.10;;;;;;;16.05;100.00;98780.16;5128729;28;20415;-77
2023/06/18 03:41:06;;;;;;;9.07;8.00;;;;;;;15.96;100.00;98779.19;5126931;28;20202;-77
2023/06/18 03:43:34;;;;;;;10.50;8.33;;;;;;;15.77;100.00;98771.16;5130022;28;20290;-77
2023/06/18 03:46:03;;;;;;;9.43;8.40;;;;;;;15.81;100.00;98783.25;5125233;28;20226;-78
2023/06/18 03:48:32;;;;;;;9.47;8.10;;;;;;;15.73;100.00;98785.78;5126480;28;20194;-77
2023/06/18 03:51:00;;;;;;;9.17;7.93;;;;;;;15.76;100.00;98780.16;5129459;27;20758;-77
2023/06/18 03:53:31;;;;;;;12.60;8.70;;;;;;;15.75;100.00;98783.81;5124856;27;20201;-77
2023/06/18 03:55:59;;;;;;;9.80;7.93;;;;;;;15.73;100.00;98783.97;5125758;27;20232;-77
2023/06/18 03:58:28;;;;;;;9.60;8.00;;;;;;;15.70;100.00;98786.06;5131170;27;20205;-77
2023/06/18 04:00:57;;;;;;;8.70;7.77;;;;;;;15.80;100.00;98786.06;5135425;27;20608;-77
2023/06/18 04:03:26;;;;;;;9.60;8.17;;;;;;;15.84;100.00;98792.81;5133285;27;20290;-77
2023/06/18 04:05:54;;;;;;;10.73;7.50;;;;;;;16.05;100.00;98795.34;5124188;27;20230;-77
2023/06/18 04:08:23;;;;;;;8.87;7.97;;;;;;;16.13;100.00;98793.66;5129808;27;20209;-77
2023/06/18 04:10:53;;;;;;;9.93;7.97;;;;;;;16.00;100.00;98790.41;5128235;27;20213;-77
2023/06/18 04:13:22;;;;;;;9.70;7.67;;;;;;;16.06;100.00;98789.84;5126833;27;20357;-77
2023/06/18 04:15:51;;;;;;;9.63;8.17;;;;;;;16.06;100.00;98799.69;5133251;27;20190;-77
2023/06/18 04:18:20;;;;;;;14.13;8.63;;;;;;;15.98;100.00;98795.06;5129036;27;20216;-77
2023/06/18 04:20:48;;;;;;;11.07;8.07;;;;;;;16.15;100.00;98799.69;5128673;27;20307;-77
2023/06/18 04:23:17;;;;;;;10.70;8.37;;;;;;;15.96;100.00;98795.19;5136144;27;20218;-77
2023/06/18 04:25:45;;;;;;;9.57;8.57;;;;;;;16.12;100.00;98800.00;5131243;27;20214;-77
2023/06/18 04:28:15;;;;;;;11.07;8.83;;;;;;;15.98;100.00;98798.56;5124475;27;20202;-77
2023/06/18 04:30:44;;;;;;;11.77;8.77;;;;;;;16.01;100.00;98803.63;5132839;27;20657;-77
2023/06/18 04:33:13;;;;;;;10.73;8.60;;;;;;;16.11;100.00;98795.59;5130499;27;20202;-77
2023/06/18 04:35:42;;;;;;;10.27;8.33;;;;;;;16.01;100.00;98797.44;5126190;27;20671;-77
2023/06/18 04:38:11;;;;;;;9.63;8.73;;;;;;;15.95;100.00;98798.03;5049452;28;20212;-77
2023/06/18 04:40:39;;;;;;;11.40;8.47;;;;;;;16.03;100.00;98798.16;5045777;28;20201;-77
2023/06/18 04:43:07;;;;;;;9.73;8.47;;;;;;;16.07;100.00;98807.56;5049505;28;20295;-77
2023/06/18 04:45:37;;;;;;;11.23;8.47;;;;;;;15.99;100.00;98804.75;5049563;28;20224;-77
2023/06/18 04:48:07;;;;;;;12.03;8.67;;;;;;;15.99;100.00;98813.63;5047950;28;20292;-77
2023/06/18 04:50:36;;;;;;;11.00;8.43;;;;;;;16.06;100.00;98807.72;5045581;28;20201;-78
2023/06/18 04:53:04;;;;;;;12.13;8.77;;;;;;;16.01;100.00;98813.47;5048429;28;20197;-78
2023/06/18 04:55:33;;;;;;;9.37;8.47;;;;;;;16.13;100.00;98811.53;4992695;28;20197;-77
2023/06/18 04:58:02;;;;;;;9.80;8.80;;;;;;;16.12;100.00;98805.34;5050501;28;20201;-77
2023/06/18 05:00:30;;;;;;;8.80;7.90;;;;;;;16.32;100.00;98822.19;5045817;28;20193;-77
2023/06/18 05:03:00;;;;;;;11.30;8.87;;;;;;;16.33;100.00;98812.34;5046926;28;20235;-75
2023/06/18 05:05:29;;;;;;;12.13;8.13;;;;;;;16.33;100.00;98818.53;5043867;28;20228;-76
2023/06/18 05:07:57;;;;;;;11.43;9.10;;;;;;;16.25;100.00;98813.03;5048036;28;20208;-76
2023/06/18 05:10:27;;;;;;;10.73;9.63;;;;;;;16.43;100.00;98818.50;5045793;28;20252;-76
2023/06/18 05:12:56;;;;;;;11.10;9.07;;;;;;;16.50;100.00;98820.47;5059088;27;20201;-76
2023/06/18 05:15:24;;;;;;;10.90;9.20;;;;;;;16.57;100.00;98820.72;5124920;27;20206;-76
2023/06/18 05:17:52;;;;;;;10.37;8.47;;;;;;;16.70;100.00;98815.94;5133474;27;20228;-76
2023/06/18 05:20:23;;;;;;;9.87;8.87;;;;;;;16.90;100.00;98819.41;5130494;27;20190;-76
2023/06/18 05:22:51;;;;;;;12.37;9.13;;;;;;;16.95;100.00;98819.78;5126573;27;20308;-76
2023/06/18 05:25:20;;;;;;;11.13;9.03;;;;;;;17.12;100.00;98826.19;5130128;27;20205;-77
2023/06/18 05:27:49;;;;;;;9.40;8.30;;;;;;;17.06;100.00;98816.91;5126841;27;20205;-77
2023/06/18 05:30:18;;;;;;;10.73;8.93;;;;;;;17.27;100.00;98827.38;5129152;27;20560;-76
2023/06/18 05:32:46;;;;;;;9.73;8.57;;;;;;;17.39;100.00;98825.38;5127082;27;20195;-77
2023/06/18 05:35:14;;;;;;;10.17;9.00;;;;;;;17.54;100.00;98825.69;5127429;27;20236;-77
2023/06/18 05:37:44;;;;;;;12.97;9.13;;;;;;;17.62;100.00;98826.63;5123012;27;20235;-77
2023/06/18 05:40:13;;;;;;;10.87;9.13;;;;;;;17.70;100.00;98821.38;5127140;27;20199;-77
2023/06/18 05:42:41;;;;;;;10.77;9.70;;;;;;;17.64;100.00;98829.97;5127991;27;20194;-77
2023/06/18 05:45:10;;;;;;;12.07;9.33;;;;;;;17.77;100.00;98823.47;5127015;27;20198;-77
2023/06/18 05:47:39;;;;;;;9.90;8.90;;;;;;;17.80;100.00;98834.72;5125056;27;20271;-77
2023/06/18 05:50:09;;;;;;;11.10;8.77;;;;;;;17.97;100.00;98828.53;5127844;27;20194;-77
2023/06/18 05:52:38;;;;;;;9.50;8.50;;;;;;;17.92;100.00;98825.44;5130060;27;20202;-77
2023/06/18 05:55:09;;;;;;;10.60;9.40;;;;;;;18.12;100.00;98831.50;5125705;27;20496;-76
2023/06/18 05:57:37;;;;;;;11.47;8.90;;;;;;;18.39;100.00;98825.19;5126198;27;20190;-76
2023/06/18 06:00:09;;;;;;;11.60;9.00;;;;;;;18.49;100.00;98831.28;5127797;27;20269;-77
2023/06/18 06:02:37;;;;;;;9.63;8.60;;;;;;;18.43;100.00;98829.25;5129967;27;20191;-76
2023/06/18 06:05:08;;;;;;;9.40;7.80;;;;;;;18.66;100.00;98839.50;5131352;27;20190;-77
2023/06/18 06:07:37;;;;;;;12.30;8.77;;;;;;;18.67;100.00;98827.75;5127318;27;20210;-77
2023/06/18 06:10:06;;;;;;;11.73;8.37;;;;;;;18.86;100.00;98832.91;5126042;27;20306;-77
2023/06/18 06:12:36;;;;;;;9.10;8.10;;;;;;;19.12;100.00;98824.84;5130675;27;20221;-77
2023/06/18 06:15:05;;;;;;;9.20;8.30;;;;;;;19.20;100.00;98829.38;5129153;27;20225;-77
2023/06/18 06:17:34;;;;;;;10.23;8.23;;;;;;;19.33;100.00;98827.13;5130076;27;20190;-77
2023/06/18 06:20:02;;;;;;;9.93;8.63;;;;;;;19.52;100.00;98828.69;5130899;27;20187;-77
2023/06/18 06:22:31;;;;;;;10.73;8.77;;;;;;;19.52;100.00;98832.22;5125379;27;20259;-76
2023/06/18 06:24:59;;;;;;;9.67;8.67;;;;;;;19.68;100.00;98824.22;5126929;27;20198;-77
2023/06/18 06:27:28;;;;;;;9.43;8.53;;;;;;;19.81;100.00;98834.50;5133483;27;20214;-76
2023/06/18 06:29:59;;;;;;;9.40;8.13;;;;;;;20.02;100.00;98828.66;5127363;27;20239;-77
2023/06/18 06:32:28;;;;;;;10.90;8.73;;;;;;;20.07;100.00;98828.97;5130747;27;20202;-77
2023/06/18 06:34:57;;;;;;;9.52;8.63;;;;;;;20.36;100.00;98827.66;5124071;27;20225;-77
2023/06/18 06:37:26;;;;;;;9.23;8.17;;;;;;;20.49;100.00;98828.03;5118286;27;20227;-77
2023/06/18 06:39:54;;;;;;;10.13;8.40;;;;;;;20.47;100.00;98824.69;5109291;28;20195;-77
2023/06/18 06:42:23;;;;;;;9.93;8.10;;;;;;;20.65;100.00;98819.91;5107446;28;20199;-77
2023/06/18 06:44:52;;;;;;;9.50;7.78;;;;;;;20.71;100.00;98818.41;5103736;28;20237;-77
2023/06/18 06:47:21;;;;;;;9.50;8.55;;;;;;;20.93;100.00;98816.84;5102379;28;20215;-77
2023/06/18 06:49:50;;;;;;;11.40;8.75;;;;;;;20.98;100.00;98815.31;5110245;28;20187;-77
2023/06/18 06:52:18;;;;;;;9.38;8.38;;;;;;;20.75;100.00;98828.69;5104232;28;20199;-77
2023/06/18 06:54:49;;;;;;;9.07;8.15;;;;;;;20.91;100.00;98830.47;5103108;28;20199;-77
2023/06/18 06:57:17;;;;;;;8.68;7.78;;;;;;;21.15;100.00;98841.19;5099400;28;20202;-77
2023/06/18 06:59:45;;;;;;;10.93;8.55;;;;;;;21.32;100.00;98836.59;5104870;28;20274;-77
2023/06/18 07:02:14;;;;;;;9.45;8.45;;;;;;;21.14;100.00;98841.38;5107375;28;20201;-76
2023/06/18 07:04:47;;;;;;;9.48;8.48;;;;;;;21.47;100.00;98838.56;5044036;28;20193;-77
2023/06/18 07:07:16;;;;;;;9.02;8.13;;;;;;;21.61;100.00;98846.75;5048500;28;20220;-77
2023/06/18 07:09:44;;;;;;;8.65;7.75;;;;;;;21.67;100.00;98835.25;5047583;28;20201;-77
2023/06/18 07:12:12;;;;;;;10.18;8.50;;;;;;;21.67;100.00;98842.50;5045292;28;20189;-76
2023/06/18 07:14:42;;;;;;;8.95;8.10;;;;;;;21.96;100.00;98839.13;5040437;28;20208;-77
2023/06/18 07:17:11;;;;;;;9.25;8.32;;;;;;;21.93;100.00;98836.81;5043578;28;20208;-77
2023/06/18 07:19:39;;;;;;;8.95;8.05;;;;;;;22.35;100.00;98840.91;5047117;28;20197;-77
2023/06/18 07:22:09;;;;;;;8.32;7.53;;;;;;;22.57;100.00;98834.63;5044835;28;20211;-77
2023/06/18 07:24:39;;;;;;;9.60;7.90;;;;;;;22.91;100.00;98828.78;5042705;28;20207;-77
2023/06/18 07:27:08;;;;;;;8.60;7.70;;;;;;;23.10;100.00;98833.63;5045287;28;20259;-77
2023/06/18 07:29:37;;;;;;;9.63;8.13;;;;;;;23.17;100.00;98835.59;5084694;28;20206;-77
2023/06/18 07:32:05;;;;;;;9.57;8.65;;;;;;;23.16;100.00;98829.31;5105831;28;20199;-77
2023/06/18 07:34:34;;;;;;;9.43;8.55;;;;;;;23.34;98.72;98820.81;5113633;28;20199;-77
2023/06/18 07:37:02;;;;;;;8.77;7.88;;;;;;;23.41;95.44;98827.16;5103251;28;20199;-77
2023/06/18 07:39:32;;;;;;;9.73;7.95;;;;;;;23.56;93.54;98814.47;5075833;28;20195;-77
2023/06/18 07:42:01;;;;;;;8.75;7.63;;;;;;;23.58;94.08;98814.28;5106318;28;20203;-78
2023/06/18 07:44:29;;;;;;;8.63;7.72;;;;;;;23.76;92.73;98817.44;5109541;28;20195;-77
2023/06/18 07:46:59;;;;;;;7.85;7.05;;;;;;;23.91;90.98;98806.56;5105674;28;20310;-77
2023/06/18 07:49:27;;;;;;;7.43;6.75;;;;;;;23.99;82.49;98814.56;5108905;28;20196;-77
2023/06/18 07:51:55;;;;;;;7.25;6.65;;;;;;;24.33;78.33;98804.94;5096904;28;20203;-77
2023/06/18 07:54:24;;;;;;;10.15;7.85;;;;;;;24.60;77.63;98805.97;5111889;28;20191;-78
2023/06/18 07:56:54;;;;;;;7.47;6.70;;;;;;;24.66;74.50;98813.31;5111933;28;20619;-77
2023/06/18 07:59:23;;;;;;;8.40;6.80;;;;;;;24.47;74.25;98804.84;5113084;28;20674;-77
2023/06/18 08:01:52;;;;;;;7.25;6.55;;;;;;;24.72;73.26;98797.13;5107486;28;20191;-77
2023/06/18 08:04:21;;;;;;;7.70;6.90;;;;;;;24.84;74.33;98803.66;5106999;28;20199;-78
2023/06/18 08:06:50;;;;;;;7.22;6.63;;;;;;;25.00;73.58;98799.81;5106226;28;20195;-77
2023/06/18 08:09:18;;;;;;;7.93;7.00;;;;;;;24.92;71.34;98797.25;5103353;28;20199;-78
2023/06/18 08:11:48;;;;;;;8.85;6.45;;;;;;;25.31;72.08;98798.53;5093247;28;20199;-77
2023/06/18 08:14:18;;;;;;;8.00;6.85;;;;;;;25.30;71.50;98799.56;5109448;28;20225;-77
2023/06/18 08:16:46;;;;;;;7.97;7.18;;;;;;;25.46;70.43;98793.78;5112734;28;20195;-78
2023/06/18 08:19:14;;;;;;;7.30;6.60;;;;;;;25.37;66.11;98797.69;5110014;28;20203;-77
2023/06/18 08:21:43;;;;;;;8.02;6.60;;;;;;;25.54;66.23;98796.31;5114544;28;20265;-77
2023/06/18 08:24:11;;;;;;;8.38;6.53;;;;;;;25.68;61.14;98802.66;5111217;28;20191;-77
2023/06/18 08:26:40;;;;;;;7.13;6.00;;;;;;;25.86;59.74;98802.06;5109205;28;20240;-77
2023/06/18 08:29:09;;;;;;;8.35;7.55;;;;;;;26.21;59.75;98798.19;5108330;28;20650;-78
2023/06/18 08:31:42;;;;;;;6.95;6.18;;;;;;;26.24;58.31;98805.06;5102717;28;20195;-78
2023/06/18 08:34:10;;;;;;;8.40;6.85;;;;;;;26.30;56.05;98800.69;5109887;28;20198;-78
2023/06/18 08:36:38;;;;;;;6.50;5.90;;;;;;;26.38;56.37;98785.06;5109092;28;20191;-78
2023/06/18 08:39:07;;;;;;;7.07;6.30;;;;;;;26.31;54.21;98789.63;5108252;28;20218;-78
2023/06/18 08:41:35;;;;;;;8.88;6.32;;;;;;;26.42;54.02;98794.47;5110235;28;20199;-77
2023/06/18 08:44:04;;;;;;;6.70;6.10;;;;;;;26.54;53.80;98786.53;5115533;28;20218;-77
2023/06/18 08:46:37;;;;;;;6.88;6.28;;;;;;;26.81;52.13;98784.59;5109710;28;20195;-77
2023/06/18 08:49:10;;;;;;;9.55;8.57;;;;;;;26.95;51.48;98788.97;5107164;28;20227;-77
2023/06/18 08:51:39;;;;;;;6.82;6.22;;;;;;;27.22;49.19;98778.91;5108326;28;20191;-78
2023/06/18 08:54:13;;;;;;;6.80;6.30;;;;;;;27.18;49.26;98785.81;5108483;28;20205;-77
2023/06/18 08:56:44;;;;;;;6.88;6.20;;;;;;;27.19;50.67;98773.88;5052112;28;20663;-77
2023/06/18 08:59:13;;;;;;;9.13;6.97;;;;;;;26.74;52.35;98779.19;5049526;28;20199;-77
2023/06/18 09:01:44;;;;;;;6.45;5.85;;;;;;;26.89;49.95;98776.22;5048017;28;20228;-78
2023/06/18 09:04:14;;;;;;;6.72;6.18;;;;;;;26.84;48.23;98783.38;5042427;28;20201;-77
2023/06/18 09:06:43;;;;;;;6.78;6.07;;;;;;;26.91;46.12;98779.56;5043350;28;20188;-77
2023/06/18 09:09:11;;;;;;;6.88;6.18;;;;;;;26.88;44.76;98781.88;5049217;28;20227;-77
2023/06/18 09:11:41;;;;;;;7.65;6.65;;;;;;;26.61;47.59;98784.63;5045886;28;20295;-78
2023/06/18 09:14:10;;;;;;;7.50;5.70;;;;;;;27.14;44.55;98783.75;5042439;28;20383;-78
2023/06/18 09:16:41;;;;;;;6.60;5.90;;;;;;;27.45;42.08;98777.53;5047997;28;20231;-78
2023/06/18 09:19:10;;;;;;;8.20;6.93;;;;;;;27.48;40.93;98767.06;5042868;28;20305;-77
2023/06/18 09:21:41;;;;;;;6.63;6.03;;;;;;;27.77;41.45;98775.72;5081593;28;20195;-77
2023/06/18 09:24:16;;;;;;;7.57;6.88;;;;;;;27.71;41.96;98772.00;5123151;27;20269;-77
2023/06/18 09:26:45;;;;;;;6.07;5.57;;;;;;;27.93;41.14;98776.06;5130761;27;20275;-77
2023/06/18 09:29:15;;;;;;;7.50;6.65;;;;;;;27.67;42.28;98763.44;5128708;27;20218;-77
2023/06/18 09:31:46;;;;;;;6.93;6.20;;;;;;;28.03;42.83;98764.69;5127434;27;20554;-78
2023/06/18 09:34:17;;;;;;;6.95;6.25;;;;;;;27.79;41.78;98754.56;5123997;27;20200;-77
2023/06/18 09:36:49;;;;;;;6.57;5.75;;;;;;;27.99;41.36;98754.44;5126853;27;20247;-78
2023/06/18 09:39:19;;;;;;;6.53;5.93;;;;;;;28.09;43.85;98752.09;5127819;27;20205;-77
2023/06/18 09:41:49;;;;;;;7.82;7.00;;;;;;;28.88;41.85;98756.00;5129650;27;20255;-77
2023/06/18 09:44:21;;;;;;;7.18;6.47;;;;;;;28.67;40.93;98755.38;5130275;27;20202;-78
2023/06/18 09:46:56;;;;;;;7.00;6.40;;;;;;;28.77;41.38;98761.16;5130482;27;20210;-77
2023/06/18 09:49:27;;;;;;;6.35;5.85;;;;;;;28.38;41.59;98750.63;5123565;27;20216;-77
2023/06/18 09:51:57;;;;;;;6.80;6.10;;;;;;;28.36;41.22;98739.09;5125614;27;20693;-77
2023/06/18 09:54:39;;;;;;;6.68;5.97;;;;;;;28.71;39.92;98744.84;5126346;27;20287;-78
2023/06/18 09:57:09;;;;;;;6.32;5.55;;;;;;;28.88;37.60;98750.56;5092500;27;20228;-78
2023/06/18 09:59:38;;;;;;;6.15;5.50;;;;;;;28.84;36.89;98747.41;5129900;27;20191;-77
2023/06/18 10:02:09;;;;;;;6.60;6.00;;;;;;;29.32;36.44;98738.50;5134331;27;20218;-76
2023/06/18 10:04:37;;;;;;;6.90;5.45;;;;;;;28.96;37.48;98745.66;5129729;27;20221;-77
2023/06/18 10:07:15;;;;;;;7.03;5.75;;;;;;;29.27;36.43;98744.66;5128369;27;20243;-77
2023/06/18 10:09:47;;;;;;;6.75;6.10;;;;;;;29.49;36.80;98753.22;5122185;27;20286;-77
2023/06/18 10:12:16;;;;;;;7.03;6.03;;;;;;;29.24;35.54;98749.72;5131223;27;20221;-77
2023/06/18 10:14:45;;;;;;;6.18;5.60;;;;;;;29.81;34.47;98740.16;5129482;27;20198;-77
2023/06/18 10:17:23;;;;;;;6.70;6.03;;;;;;;30.04;33.95;98736.69;5129624;27;20194;-77
2023/06/18 10:20:00;;;;;;;6.47;5.88;;;;;;;30.18;35.00;98740.88;5127526;27;20194;-78
2023/06/18 10:22:35;;;;;;;7.22;6.53;;;;;;;30.41;34.97;98736.53;5125109;27;20273;-78
2023/06/18 10:25:06;;;;;;;8.00;5.85;;;;;;;30.12;34.65;98739.09;5127840;27;20263;-77
2023/06/18 10:27:35;;;;;;;6.47;5.88;;;;;;;30.34;33.67;98741.28;5133844;27;20229;-77
2023/06/18 10:30:05;;;;;;;6.45;5.47;;;;;;;29.46;34.79;98747.38;5123248;27;20218;-77
2023/06/18 10:32:35;;;;;;;6.30;5.70;;;;;;;28.93;35.78;98739.81;5124278;27;20690;-77
2023/06/18 10:35:05;;;;;;;5.68;5.15;;;;;;;28.64;35.96;98736.72;5121717;27;20226;-77
2023/06/18 10:37:36;;;;;;;6.35;5.18;;;;;;;28.91;35.51;98731.88;5123940;27;20228;-78
2023/06/18 10:40:06;;;;;;;6.90;5.60;;;;;;;29.63;34.79;98730.16;5127529;27;20240;-78
2023/06/18 10:42:35;;;;;;;5.95;5.35;;;;;;;29.95;34.56;98721.69;5129934;27;20239;-78
2023/06/18 10:45:11;;;;;;;5.93;5.32;;;;;;;30.76;34.22;98723.69;5129211;27;20205;-77
2023/06/18 10:47:40;;;;;;;5.88;5.38;;;;;;;30.25;34.51;98720.81;5086788;28;20203;-78
2023/06/18 10:50:17;;;;;;;6.00;5.40;;;;;;;30.40;32.54;98716.56;5086426;28;20277;-78
2023/06/18 10:52:50;;;;;;;5.90;5.30;;;;;;;31.41;31.03;98711.69;5085141;28;20209;-77
2023/06/18 10:55:31;;;;;;;6.32;5.35;;;;;;;31.00;30.74;98724.50;5080066;28;20230;-78
2023/06/18 10:58:02;;;;;;;6.32;5.10;;;;;;;29.17;31.75;98722.53;5084935;28;20196;-77
2023/06/18 11:00:35;;;;;;;7.07;4.90;;;;;;;29.38;31.29;98726.69;5092301;28;20253;-78
2023/06/18 11:03:07;;;;;;;7.00;4.93;;;;;;;29.57;30.78;98713.84;5087517;28;20199;-78
2023/06/18 11:05:45;;;;;;;6.00;4.70;;;;;;;30.06;30.02;98709.94;5085587;28;20223;-77
2023/06/18 11:08:17;;;;;;;6.20;4.85;;;;;;;30.53;29.50;98710.03;5090868;28;20202;-78
2023/06/18 11:10:48;;;;;;;6.20;5.00;;;;;;;30.73;29.88;98702.31;5087206;28;20226;-78
2023/06/18 11:13:18;;;;;;;5.20;4.70;;;;;;;30.22;29.82;98710.38;5128399;27;20198;-78
2023/06/18 11:15:54;;;;;;;6.07;5.00;;;;;;;29.28;32.63;98708.13;5128054;27;20198;-78
2023/06/18 11:18:25;;;;;;;5.60;4.68;;;;;;;29.77;30.61;98713.56;5133008;27;20194;-78
2023/06/18 11:20:55;;;;;;;7.10;4.85;;;;;;;30.00;30.22;98707.31;5135425;27;20183;-78
2023/06/18 11:23:26;;;;;;;4.70;4.28;;;;;;;30.89;28.42;98705.38;5124642;27;20198;-78
2023/06/18 11:25:55;;;;;;;4.70;4.25;;;;;;;31.44;26.80;98691.19;5136591;27;20198;-78
2023/06/18 11:28:25;;;;;;;4.78;4.30;;;;;;;31.60;27.44;98690.41;5129568;27;20240;-78
2023/06/18 11:30:58;;;;;;;5.57;4.90;;;;;;;32.01;29.46;98686.50;5127749;27;20206;-78
2023/06/18 11:33:29;;;;;;;5.45;4.95;;;;;;;32.36;29.24;98686.28;5128981;27;20190;-78
2023/06/18 11:36:08;;;;;;;5.80;4.60;;;;;;;32.04;29.32;98688.75;5126486;27;20209;-78
2023/06/18 11:38:40;;;;;;;5.40;4.90;;;;;;;32.92;28.44;98686.28;5083363;27;20218;-77